Time;durP1;ratioP1;P1;durP2;ratioP2;P2;SDS_P1;SDS_P2;PMS_P1;PMS_P2;Temp;Humidity;BMP_temperature;BMP_pressure;BME280_temperature;BME280_humidity;BME280_pressure;Samples;Min_cycle;Max_cycle;Signal;HPM_P1;HPM_P2
2022/07/31 00:02:23;;;;;;;23.05;18.90;;;;;;;20.29;100.00;94550.84;6274936;22;20171;-88
2022/07/31 00:04:49;;;;;;;21.50;18.55;;;;;;;20.15;100.00;94529.59;6272946;22;20686;-88
2022/07/31 00:07:16;;;;;;;21.67;17.13;;;;;;;20.30;100.00;94545.28;6272803;22;20165;-87
2022/07/31 00:09:43;;;;;;;22.02;18.38;;;;;;;20.30;100.00;94524.19;6272563;22;20203;-88
2022/07/31 00:12:10;;;;;;;20.75;17.75;;;;;;;20.51;100.00;94542.44;6272182;22;20628;-88
2022/07/31 00:14:37;;;;;;;20.48;17.67;;;;;;;20.49;100.00;94542.69;6271926;22;20161;-87
2022/07/31 00:17:05;;;;;;;21.50;17.88;;;;;;;20.65;100.00;94546.75;6272535;22;20236;-90
2022/07/31 00:19:32;;;;;;;21.38;18.02;;;;;;;20.65;100.00;94556.50;6272374;22;20172;-89
2022/07/31 00:21:59;;;;;;;26.70;17.73;;;;;;;20.66;100.00;94572.09;6272736;22;20542;-90
2022/07/31 00:24:28;;;;;;;20.55;16.73;;;;;;;20.66;100.00;94573.94;6272431;22;20517;-90
2022/07/31 00:26:55;;;;;;;20.60;16.45;;;;;;;20.68;100.00;94577.88;6272464;22;20523;-89
2022/07/31 00:29:22;;;;;;;20.45;17.15;;;;;;;20.71;100.00;94568.59;6271545;22;20316;-89
2022/07/31 00:31:49;;;;;;;23.35;17.00;;;;;;;20.62;100.00;94551.81;6272679;22;20165;-90
2022/07/31 00:34:18;;;;;;;21.25;17.17;;;;;;;20.75;100.00;94566.97;6273448;22;20161;-88
2022/07/31 00:36:44;;;;;;;21.20;17.90;;;;;;;20.76;100.00;94563.25;6272295;22;20169;-87
2022/07/31 00:39:11;;;;;;;26.63;17.98;;;;;;;20.75;100.00;94566.97;6270721;22;20191;-88
2022/07/31 00:41:39;;;;;;;20.60;18.17;;;;;;;20.76;100.00;94566.69;6272304;22;20165;-88
2022/07/31 00:44:06;;;;;;;19.92;17.60;;;;;;;20.73;100.00;94582.31;6271577;22;20165;-87
2022/07/31 00:46:33;;;;;;;22.17;17.90;;;;;;;20.73;100.00;94558.53;6272453;22;20161;-88
2022/07/31 00:49:00;;;;;;;19.58;17.48;;;;;;;20.74;100.00;94562.75;6273814;22;20165;-89
2022/07/31 00:51:29;;;;;;;22.45;17.83;;;;;;;20.78;100.00;94566.38;6272124;22;20164;-89
2022/07/31 00:53:56;;;;;;;22.02;17.50;;;;;;;20.65;100.00;94562.59;6272745;22;20161;-87
2022/07/31 00:56:23;;;;;;;23.38;18.50;;;;;;;20.71;100.00;94571.25;6272398;22;20173;-86
2022/07/31 00:58:51;;;;;;;24.73;18.10;;;;;;;20.49;100.00;94561.19;6271532;22;20476;-89
2022/07/31 01:01:18;;;;;;;21.48;17.63;;;;;;;20.49;100.00;94565.69;6272603;22;20161;-91
2022/07/31 01:03:44;;;;;;;20.65;15.75;;;;;;;20.33;100.00;94567.72;6272461;22;20176;-89
2022/07/31 01:06:12;;;;;;;22.48;14.40;;;;;;;19.91;100.00;94559.66;6272300;22;20172;-92
2022/07/31 01:08:40;;;;;;;21.27;14.82;;;;;;;19.80;100.00;94586.13;6273217;22;20173;-86
2022/07/31 01:11:13;;;;;;;21.30;14.32;;;;;;;19.61;100.00;94589.69;6276477;22;20646;-87
2022/07/31 01:13:48;;;;;;;22.35;15.95;;;;;;;19.75;100.00;94583.53;6271927;22;20172;-89
2022/07/31 01:16:18;;;;;;;18.65;14.57;;;;;;;19.83;100.00;94560.25;6272384;22;20231;-87
2022/07/31 01:18:46;;;;;;;18.88;13.80;;;;;;;19.97;100.00;94577.03;6271598;22;20518;-86
2022/07/31 01:21:29;;;;;;;20.77;15.15;;;;;;;20.10;100.00;94573.72;6272016;22;20623;-89
2022/07/31 01:24:22;;;;;;;20.42;15.68;;;;;;;20.16;100.00;94569.97;6272018;22;20200;-88
2022/07/31 01:26:53;;;;;;;21.98;15.45;;;;;;;20.10;100.00;94579.78;6272630;22;20167;-88
2022/07/31 01:29:26;;;;;;;18.77;15.02;;;;;;;19.92;100.00;94566.50;6272048;22;20220;-89
2022/07/31 01:32:00;;;;;;;22.85;15.70;;;;;;;20.01;100.00;94573.53;6272807;22;20499;-88
2022/07/31 01:34:35;;;;;;;21.67;14.88;;;;;;;20.00;100.00;94579.09;6272720;22;20168;-87
2022/07/31 01:37:09;;;;;;;18.95;13.27;;;;;;;19.96;100.00;94581.50;6272852;22;20516;-87
2022/07/31 01:39:38;;;;;;;16.85;13.32;;;;;;;19.95;100.00;94592.31;6271871;22;20180;-88
2022/07/31 01:42:07;;;;;;;19.98;13.43;;;;;;;19.96;100.00;94583.34;6275760;22;20173;-87
2022/07/31 01:44:42;;;;;;;19.63;12.95;;;;;;;20.03;100.00;94575.91;6275520;22;20169;-88
2022/07/31 01:47:11;;;;;;;21.85;12.90;;;;;;;20.00;100.00;94573.81;6276150;22;20160;-88
2022/07/31 01:49:40;;;;;;;17.63;13.00;;;;;;;19.98;100.00;94576.72;6273396;22;20267;-88
2022/07/31 01:52:08;;;;;;;17.85;12.70;;;;;;;19.66;100.00;94563.28;6273149;22;20496;-87
2022/07/31 01:54:36;;;;;;;15.30;12.43;;;;;;;19.52;100.00;94572.88;6272656;22;20240;-88
2022/07/31 01:57:06;;;;;;;18.52;12.73;;;;;;;19.39;100.00;94563.78;6273140;22;20674;-88
2022/07/31 01:59:37;;;;;;;18.45;13.13;;;;;;;19.47;100.00;94571.09;6272742;22;20706;-88
2022/07/31 02:02:07;;;;;;;19.55;12.45;;;;;;;19.42;100.00;94580.88;6272194;22;20164;-87
2022/07/31 02:04:36;;;;;;;17.75;13.02;;;;;;;19.19;100.00;94556.72;6271027;22;20223;-90
2022/07/31 02:07:04;;;;;;;18.85;12.80;;;;;;;19.27;100.00;94550.13;6271190;22;20158;-89
2022/07/31 02:09:33;;;;;;;22.65;13.68;;;;;;;19.61;100.00;94579.94;6271469;22;20251;-89
2022/07/31 02:12:01;;;;;;;19.63;14.18;;;;;;;19.71;100.00;94579.09;6272646;22;20187;-89
2022/07/31 02:14:28;;;;;;;20.23;13.65;;;;;;;19.76;100.00;94584.31;6272070;22;20172;-88
2022/07/31 02:16:56;;;;;;;27.23;16.73;;;;;;;19.69;100.00;94574.06;6270683;22;20171;-89
2022/07/31 02:19:25;;;;;;;43.65;28.00;;;;;;;19.78;100.00;94580.34;6270654;22;20192;-87
2022/07/31 02:21:52;;;;;;;32.92;22.83;;;;;;;19.78;100.00;94569.00;6270712;22;20216;-88
2022/07/31 02:24:19;;;;;;;36.85;24.13;;;;;;;19.80;100.00;94582.69;6271712;22;20160;-89
2022/07/31 02:26:47;;;;;;;25.90;18.25;;;;;;;19.79;100.00;94587.19;6272107;22;20562;-89
2022/07/31 02:29:16;;;;;;;24.95;15.80;;;;;;;19.77;100.00;94586.66;6271781;22;20207;-88
2022/07/31 02:31:45;;;;;;;19.73;15.57;;;;;;;19.77;100.00;94591.16;6272955;22;20173;-86
2022/07/31 02:34:13;;;;;;;17.27;13.82;;;;;;;19.79;100.00;94581.13;6272418;22;20175;-87
2022/07/31 02:36:42;;;;;;;18.00;14.07;;;;;;;19.74;100.00;94587.22;6271706;22;20165;-87
2022/07/31 02:39:11;;;;;;;14.95;12.40;;;;;;;19.71;100.00;94594.91;6272269;22;20216;-87
2022/07/31 02:41:40;;;;;;;16.73;14.05;;;;;;;19.57;100.00;94584.19;6272320;22;20247;-88
2022/07/31 02:44:08;;;;;;;19.40;14.68;;;;;;;19.66;100.00;94589.66;6271618;22;20172;-89
2022/07/31 02:46:37;;;;;;;19.83;14.70;;;;;;;19.58;100.00;94588.41;6271402;22;20161;-87
2022/07/31 02:49:04;;;;;;;18.92;14.90;;;;;;;19.55;100.00;94598.72;6272160;22;20164;-87
2022/07/31 02:51:32;;;;;;;19.02;15.48;;;;;;;19.42;100.00;94586.94;6271695;22;20514;-87
2022/07/31 02:54:00;;;;;;;17.40;15.50;;;;;;;19.40;100.00;94583.00;6271383;22;20164;-86
2022/07/31 02:56:28;;;;;;;21.75;15.93;;;;;;;19.34;100.00;94590.13;6272907;22;20196;-86
2022/07/31 02:58:55;;;;;;;22.60;16.23;;;;;;;19.44;100.00;94597.22;6271380;22;20188;-86
2022/07/31 03:01:22;;;;;;;22.02;16.17;;;;;;;19.49;100.00;94589.25;6272094;22;20168;-86
2022/07/31 03:03:50;;;;;;;21.83;16.02;;;;;;;19.44;100.00;94598.00;6272676;22;20226;-87
2022/07/31 03:06:16;;;;;;;23.13;15.73;;;;;;;19.41;100.00;94589.84;6271633;22;20169;-87
2022/07/31 03:08:44;;;;;;;22.40;16.60;;;;;;;19.17;100.00;94552.81;6272070;22;20168;-88
2022/07/31 03:11:12;;;;;;;19.88;15.45;;;;;;;19.30;100.00;94580.41;6272297;22;20165;-89
2022/07/31 03:13:42;;;;;;;18.67;15.55;;;;;;;19.36;100.00;94584.59;6271662;22;20244;-89
2022/07/31 03:16:11;;;;;;;23.17;14.57;;;;;;;19.35;100.00;94591.69;6271284;22;20172;-89
2022/07/31 03:18:40;;;;;;;20.08;15.18;;;;;;;19.27;100.00;94595.72;6273079;22;20667;-87
2022/07/31 03:21:09;;;;;;;18.92;14.90;;;;;;;19.39;100.00;94597.25;6272908;22;20160;-85
2022/07/31 03:23:36;;;;;;;16.63;13.60;;;;;;;19.34;100.00;94598.03;6270847;22;20647;-87
2022/07/31 03:26:04;;;;;;;17.95;13.93;;;;;;;19.31;100.00;94600.44;6273189;22;20165;-86
2022/07/31 03:28:34;;;;;;;15.63;13.75;;;;;;;19.32;100.00;94600.16;6273807;22;20188;-86
2022/07/31 03:31:01;;;;;;;18.92;14.43;;;;;;;19.19;100.00;94592.88;6272666;22;20211;-87
2022/07/31 03:33:28;;;;;;;17.83;13.98;;;;;;;19.26;100.00;94604.66;6273857;22;20161;-86
2022/07/31 03:35:56;;;;;;;16.63;13.25;;;;;;;19.28;100.00;94609.66;6273049;22;20165;-86
2022/07/31 03:38:23;;;;;;;18.85;14.45;;;;;;;19.33;100.00;94611.50;6273867;22;20276;-88
2022/07/31 03:40:50;;;;;;;15.70;13.93;;;;;;;19.31;100.00;94611.75;6273924;22;20223;-87
2022/07/31 03:43:19;;;;;;;21.73;15.82;;;;;;;18.93;100.00;94607.22;6274424;22;20161;-87
2022/07/31 03:45:50;;;;;;;24.63;17.08;;;;;;;18.61;100.00;94618.16;6275903;22;20168;-88
2022/07/31 03:48:17;;;;;;;18.70;15.87;;;;;;;18.31;100.00;94618.19;6280757;22;20589;-88
2022/07/31 03:50:45;;;;;;;22.03;15.77;;;;;;;18.18;100.00;94602.97;6274834;22;20161;-89
2022/07/31 03:53:13;;;;;;;21.53;15.37;;;;;;;18.33;100.00;94598.44;6275292;22;20165;-87
2022/07/31 03:55:41;;;;;;;20.53;14.00;;;;;;;18.54;100.00;94615.78;6273430;22;20166;-88
2022/07/31 03:58:08;;;;;;;17.53;14.07;;;;;;;18.72;100.00;94621.53;6273543;22;20167;-88
2022/07/31 04:00:36;;;;;;;18.00;12.60;;;;;;;18.74;100.00;94625.47;6273068;22;20168;-88
2022/07/31 04:03:07;;;;;;;16.83;13.07;;;;;;;18.55;100.00;94621.84;6272876;22;20172;-88
2022/07/31 04:05:34;;;;;;;15.73;13.47;;;;;;;18.34;100.00;94615.81;6272463;22;20157;-87
2022/07/31 04:08:01;;;;;;;18.93;13.57;;;;;;;18.45;100.00;94616.56;6273465;22;20650;-90
2022/07/31 04:10:28;;;;;;;19.57;14.53;;;;;;;18.40;100.00;94622.63;6273448;22;20175;-89
2022/07/31 04:12:55;;;;;;;20.23;15.47;;;;;;;18.42;100.00;94625.00;6272630;22;20185;-88
2022/07/31 04:15:22;;;;;;;22.60;16.93;;;;;;;18.32;100.00;94625.03;6273171;22;20169;-89
2022/07/31 04:17:49;;;;;;;24.03;17.70;;;;;;;18.22;100.00;94627.66;6273695;22;20165;-89
2022/07/31 04:20:18;;;;;;;27.10;17.53;;;;;;;18.27;100.00;94619.78;6274676;22;20230;-88
2022/07/31 04:22:45;;;;;;;24.87;17.00;;;;;;;18.16;100.00;94611.09;6273201;22;20275;-88
2022/07/31 04:25:12;;;;;;;19.77;16.17;;;;;;;18.25;100.00;94621.88;6273355;22;20632;-88
2022/07/31 04:27:39;;;;;;;22.67;15.83;;;;;;;18.30;100.00;94608.69;6273479;22;20216;-88
2022/07/31 04:30:07;;;;;;;21.50;15.97;;;;;;;18.41;100.00;94610.28;6273679;22;20161;-88
2022/07/31 04:32:34;;;;;;;28.17;16.27;;;;;;;18.36;100.00;94597.09;6273211;22;20169;-88
2022/07/31 04:35:01;;;;;;;21.63;16.07;;;;;;;18.41;100.00;94599.75;6273412;22;20168;-88
2022/07/31 04:37:30;;;;;;;20.07;15.87;;;;;;;18.55;100.00;94612.09;6272668;22;20171;-88
2022/07/31 04:39:57;;;;;;;20.17;15.83;;;;;;;18.76;100.00;94610.16;6273053;22;20534;-88
2022/07/31 04:42:23;;;;;;;19.87;15.90;;;;;;;18.82;100.00;94614.38;6273048;22;20196;-89
2022/07/31 04:44:51;;;;;;;18.03;14.73;;;;;;;18.95;100.00;94615.63;6272468;22;20184;-88
2022/07/31 04:47:18;;;;;;;19.63;15.23;;;;;;;18.99;100.00;94603.50;6273260;22;20663;-88
2022/07/31 04:49:44;;;;;;;17.73;14.40;;;;;;;19.23;100.00;94612.31;6272954;22;20646;-87
2022/07/31 04:52:11;;;;;;;18.50;14.40;;;;;;;19.32;100.00;94621.25;6273439;22;20176;-88
2022/07/31 04:54:40;;;;;;;20.83;14.67;;;;;;;19.22;100.00;94616.00;6273482;22;20601;-88
2022/07/31 04:57:06;;;;;;;18.30;14.50;;;;;;;19.19;100.00;94608.69;6273522;22;20244;-88
2022/07/31 04:59:33;;;;;;;18.20;13.97;;;;;;;19.17;100.00;94622.09;6273279;22;20663;-88
2022/07/31 05:02:00;;;;;;;17.48;13.75;;;;;;;19.10;100.00;94616.38;6273267;22;20164;-89
2022/07/31 05:04:27;;;;;;;19.47;13.97;;;;;;;19.20;100.00;94626.84;6276232;22;20167;-88
2022/07/31 05:06:54;;;;;;;17.40;13.90;;;;;;;19.21;100.00;94622.34;6274088;22;20243;-90
2022/07/31 05:09:22;;;;;;;17.52;14.75;;;;;;;19.27;100.00;94629.97;6273306;22;20523;-89
2022/07/31 05:11:54;;;;;;;16.05;13.40;;;;;;;19.44;100.00;94640.19;6271355;22;20165;-77
2022/07/31 05:14:21;;;;;;;14.90;12.77;;;;;;;19.70;100.00;94633.69;6270584;22;20561;-78
2022/07/31 05:16:48;;;;;;;16.25;12.75;;;;;;;19.93;100.00;94634.81;6269533;22;20161;-77
2022/07/31 05:19:16;;;;;;;19.50;14.63;;;;;;;19.92;100.00;94627.16;6268777;22;20192;-78
2022/07/31 05:21:48;;;;;;;15.15;13.25;;;;;;;19.90;100.00;94624.81;6270464;22;20671;-80
2022/07/31 05:24:17;;;;;;;16.83;12.93;;;;;;;19.71;100.00;94629.97;6270794;22;20164;-78
2022/07/31 05:26:44;;;;;;;16.15;12.45;;;;;;;19.63;100.00;94630.56;6271597;22;20169;-78
2022/07/31 05:29:13;;;;;;;12.88;11.40;;;;;;;19.69;100.00;94636.56;6269860;22;20205;-78
2022/07/31 05:31:40;;;;;;;16.10;12.45;;;;;;;19.61;100.00;94627.41;6269516;22;20172;-78
2022/07/31 05:34:10;;;;;;;15.95;12.25;;;;;;;19.51;100.00;94624.06;6270201;22;20165;-78
2022/07/31 05:36:45;;;;;;;13.75;11.25;;;;;;;19.45;100.00;94628.56;6269737;22;20175;-78
2022/07/31 05:39:13;;;;;;;13.73;12.20;;;;;;;19.42;100.00;94630.97;6271501;22;20180;-76
2022/07/31 05:41:41;;;;;;;15.63;12.45;;;;;;;19.42;100.00;94629.13;6269366;22;20188;-77
2022/07/31 05:44:08;;;;;;;13.25;11.30;;;;;;;19.31;100.00;94629.44;6270038;22;20172;-77
2022/07/31 05:46:45;;;;;;;16.08;12.20;;;;;;;19.30;100.00;94630.47;6270379;22;20172;-78
2022/07/31 05:49:12;;;;;;;13.98;11.25;;;;;;;19.41;100.00;94634.66;6269772;22;20149;-77
2022/07/31 05:51:42;;;;;;;13.52;10.98;;;;;;;19.60;100.00;94631.09;6269653;22;20169;-77
2022/07/31 05:54:09;;;;;;;16.13;11.10;;;;;;;19.83;100.00;94632.25;6270281;22;20165;-77
2022/07/31 05:56:35;;;;;;;13.73;10.90;;;;;;;19.96;100.00;94626.34;6270434;22;20169;-80
2022/07/31 05:59:02;;;;;;;13.82;11.45;;;;;;;20.10;100.00;94629.94;6270699;22;20263;-77
2022/07/31 06:01:29;;;;;;;14.82;12.07;;;;;;;20.36;100.00;94628.66;6270450;22;20640;-77
2022/07/31 06:03:57;;;;;;;16.58;11.75;;;;;;;20.57;100.00;94636.38;6271266;22;20196;-76
2022/07/31 06:06:24;;;;;;;15.50;12.55;;;;;;;20.81;100.00;94637.16;6270090;22;20180;-78
2022/07/31 06:08:51;;;;;;;12.77;11.20;;;;;;;20.90;100.00;94630.97;6269458;22;20212;-76
2022/07/31 06:11:18;;;;;;;15.35;11.88;;;;;;;20.87;100.00;94636.81;6270666;22;20226;-77
2022/07/31 06:13:45;;;;;;;16.27;12.13;;;;;;;20.89;100.00;94631.28;6269928;22;20177;-76
2022/07/31 06:16:12;;;;;;;14.68;11.90;;;;;;;20.92;100.00;94625.41;6270127;22;20169;-78
2022/07/31 06:18:39;;;;;;;18.60;12.18;;;;;;;20.91;100.00;94626.47;6269382;22;20192;-78
2022/07/31 06:21:07;;;;;;;21.42;12.45;;;;;;;21.03;100.00;94631.34;6269653;22;20197;-78
2022/07/31 06:23:35;;;;;;;14.40;11.93;;;;;;;21.14;100.00;94630.19;6270107;22;20263;-78
2022/07/31 06:26:02;;;;;;;15.32;11.38;;;;;;;21.17;100.00;94626.97;6270328;22;20326;-78
2022/07/31 06:28:29;;;;;;;14.70;12.45;;;;;;;21.18;100.00;94629.31;6269424;22;20203;-78
2022/07/31 06:30:56;;;;;;;16.50;12.43;;;;;;;21.07;100.00;94625.22;6269040;22;20176;-77
2022/07/31 06:33:25;;;;;;;18.55;12.43;;;;;;;21.02;100.00;94629.78;6270274;22;20175;-79
2022/07/31 06:35:52;;;;;;;16.80;13.00;;;;;;;20.99;100.00;94623.19;6269010;22;20219;-79
2022/07/31 06:38:23;;;;;;;17.95;13.98;;;;;;;20.97;100.00;94620.06;6269340;22;20176;-77
2022/07/31 06:40:50;;;;;;;20.00;13.20;;;;;;;20.97;100.00;94625.34;6268891;22;20184;-77
2022/07/31 06:43:17;;;;;;;18.80;14.40;;;;;;;20.98;100.00;94621.63;6269374;22;20628;-77
2022/07/31 06:45:44;;;;;;;18.33;14.00;;;;;;;20.91;100.00;94611.41;6270548;22;20184;-77
2022/07/31 06:48:13;;;;;;;16.67;13.48;;;;;;;21.17;100.00;94624.34;6269723;22;20222;-78
2022/07/31 06:50:39;;;;;;;20.23;13.50;;;;;;;21.36;100.00;94619.84;6269686;22;20192;-77
2022/07/31 06:53:06;;;;;;;17.83;13.75;;;;;;;21.52;100.00;94623.06;6269280;22;20161;-77
2022/07/31 06:55:34;;;;;;;17.65;13.98;;;;;;;21.75;100.00;94635.44;6270331;22;20176;-77
2022/07/31 06:58:02;;;;;;;20.38;14.75;;;;;;;21.88;100.00;94643.44;6270098;22;20176;-77
2022/07/31 07:00:29;;;;;;;19.77;14.40;;;;;;;21.89;100.00;94637.09;6269730;22;20678;-78
2022/07/31 07:02:56;;;;;;;18.90;14.10;;;;;;;21.96;100.00;94637.50;6270156;22;20177;-79
2022/07/31 07:05:23;;;;;;;19.13;14.55;;;;;;;21.96;100.00;94642.78;6270270;22;20522;-79
2022/07/31 07:07:50;;;;;;;17.52;13.65;;;;;;;22.05;100.00;94641.06;6269469;22;20192;-77
2022/07/31 07:10:16;;;;;;;19.08;14.65;;;;;;;21.97;100.00;94648.88;6270326;22;20226;-78
2022/07/31 07:12:44;;;;;;;19.95;15.07;;;;;;;21.70;100.00;94638.91;6268582;22;20180;-78
2022/07/31 07:15:11;;;;;;;18.73;14.63;;;;;;;21.74;100.00;94653.16;6269002;22;20256;-80
2022/07/31 07:17:38;;;;;;;19.15;14.77;;;;;;;21.62;100.00;94652.00;6275064;22;20169;-83
2022/07/31 07:20:06;;;;;;;20.63;14.90;;;;;;;21.81;100.00;94643.00;6269437;22;20188;-78
2022/07/31 07:22:33;;;;;;;24.52;16.15;;;;;;;22.26;100.00;94652.09;6268691;22;20248;-77
2022/07/31 07:25:00;;;;;;;20.98;16.75;;;;;;;22.51;100.00;94651.66;6269430;22;20666;-77
2022/07/31 07:27:27;;;;;;;18.60;15.80;;;;;;;22.34;100.00;94638.19;6268195;22;20228;-77
2022/07/31 07:29:56;;;;;;;22.00;16.95;;;;;;;22.29;100.00;94648.88;6269371;22;20187;-76
2022/07/31 07:32:23;;;;;;;27.42;17.67;;;;;;;22.21;100.00;94652.19;6270073;22;20169;-75
2022/07/31 07:34:50;;;;;;;23.85;16.95;;;;;;;22.02;100.00;94651.44;6269535;22;20471;-75
2022/07/31 07:37:16;;;;;;;23.40;16.50;;;;;;;21.97;100.00;94651.50;6270335;22;20169;-77
2022/07/31 07:39:43;;;;;;;23.05;18.27;;;;;;;21.83;100.00;94658.59;6270505;22;20192;-76
2022/07/31 07:42:10;;;;;;;23.85;16.30;;;;;;;21.78;100.00;94642.78;6269230;22;20168;-75
2022/07/31 07:44:37;;;;;;;24.55;15.55;;;;;;;22.05;100.00;94642.91;6269640;22;20168;-76
2022/07/31 07:47:05;;;;;;;22.70;15.77;;;;;;;22.40;100.00;94638.88;6269965;22;20179;-75
2022/07/31 07:49:34;;;;;;;21.13;15.50;;;;;;;22.84;100.00;94641.81;6270247;22;20192;-85
2022/07/31 07:52:01;;;;;;;19.08;13.57;;;;;;;23.13;100.00;94649.47;6270535;22;20219;-84
2022/07/31 07:54:28;;;;;;;18.73;13.20;;;;;;;23.23;100.00;94640.53;6269498;22;20169;-86
2022/07/31 07:56:55;;;;;;;18.70;11.98;;;;;;;23.35;100.00;94646.13;6268988;22;20670;-85
2022/07/31 07:59:22;;;;;;;12.75;10.38;;;;;;;22.95;100.00;94653.00;6269194;22;20184;-84
2022/07/31 08:01:49;;;;;;;14.38;10.57;;;;;;;22.49;100.00;94653.03;6270311;22;20639;-82
2022/07/31 08:04:17;;;;;;;15.32;11.27;;;;;;;22.17;100.00;94648.53;6270624;22;20516;-82
2022/07/31 08:06:44;;;;;;;15.65;11.77;;;;;;;22.01;100.00;94655.16;6269471;22;20165;-83
2022/07/31 08:09:11;;;;;;;13.85;10.80;;;;;;;22.37;100.00;94642.13;6269731;22;20173;-82
2022/07/31 08:11:38;;;;;;;13.15;10.57;;;;;;;22.67;100.00;94651.41;6269944;22;20172;-82
2022/07/31 08:14:05;;;;;;;14.43;10.75;;;;;;;22.92;100.00;94661.53;6270470;22;20176;-81
2022/07/31 08:16:32;;;;;;;13.57;10.45;;;;;;;22.75;100.00;94656.03;6271442;22;20165;-80
2022/07/31 08:18:59;;;;;;;16.13;11.02;;;;;;;22.34;100.00;94666.53;6272548;22;20169;-81
2022/07/31 08:21:27;;;;;;;16.40;11.85;;;;;;;22.27;100.00;94658.19;6271736;22;20203;-83
2022/07/31 08:23:54;;;;;;;14.95;10.82;;;;;;;22.02;100.00;94662.03;6270700;22;20920;-82
2022/07/31 08:26:21;;;;;;;15.48;10.75;;;;;;;21.89;100.00;94668.84;6269768;22;20271;-74
2022/07/31 09:09:48;;;;;;;16.02;12.70;;;;;;;22.66;100.00;94650.63;6300269;22;20257;-76
2022/07/31 09:12:15;;;;;;;14.00;11.85;;;;;;;22.89;100.00;94667.44;6298840;22;20172;-75
2022/07/31 09:14:48;;;;;;;16.02;11.38;;;;;;;23.11;100.00;94663.03;6302055;22;20198;-79
2022/07/31 09:17:15;;;;;;;19.23;12.77;;;;;;;23.29;100.00;94673.81;6301354;22;20156;-73
2022/07/31 09:19:43;;;;;;;17.60;14.00;;;;;;;23.36;100.00;94671.53;6301222;22;20175;-74
2022/07/31 09:22:19;;;;;;;16.75;13.48;;;;;;;23.13;100.00;94666.16;6300033;22;20283;-74
2022/07/31 09:24:48;;;;;;;17.35;14.60;;;;;;;23.00;100.00;94663.53;6301461;22;20159;-74
2022/07/31 09:27:16;;;;;;;19.73;14.60;;;;;;;22.88;100.00;94676.47;6300288;22;20161;-74
2022/07/31 09:29:48;;;;;;;19.48;15.57;;;;;;;22.71;100.00;94660.38;6299953;22;20247;-75
2022/07/31 09:32:17;;;;;;;23.05;16.48;;;;;;;22.72;100.00;94662.72;6300734;22;20156;-76
2022/07/31 09:34:45;;;;;;;19.52;15.27;;;;;;;22.82;100.00;94661.75;6299466;22;20176;-76
2022/07/31 09:37:14;;;;;;;19.63;15.05;;;;;;;22.83;99.85;94660.69;6301140;22;20238;-78
2022/07/31 09:39:42;;;;;;;18.17;14.77;;;;;;;22.81;97.72;94655.66;6301272;22;20191;-77
2022/07/31 09:42:10;;;;;;;19.35;14.82;;;;;;;22.85;98.26;94646.03;6299848;22;20168;-76
2022/07/31 09:44:42;;;;;;;19.08;14.73;;;;;;;23.14;97.13;94651.81;6300576;22;20164;-76
2022/07/31 09:47:21;;;;;;;17.00;14.35;;;;;;;23.02;94.66;94642.81;6299906;22;20639;-78
2022/07/31 09:49:54;;;;;;;17.83;14.45;;;;;;;22.89;96.15;94654.19;6301814;22;20497;-76
2022/07/31 09:52:22;;;;;;;18.25;14.48;;;;;;;22.70;96.73;94645.53;6299098;22;20160;-76
2022/07/31 09:55:01;;;;;;;18.15;14.80;;;;;;;22.59;97.85;94635.09;6301631;22;20164;-75
2022/07/31 09:57:29;;;;;;;18.27;15.13;;;;;;;22.71;99.16;94645.25;6300465;22;20487;-76
2022/07/31 09:59:56;;;;;;;18.05;14.95;;;;;;;22.84;98.16;94643.69;6144918;23;20178;-75
2022/07/31 10:02:26;;;;;;;20.05;15.35;;;;;;;22.88;97.83;94642.81;6144171;23;20174;-76
2022/07/31 10:04:54;;;;;;;19.13;15.48;;;;;;;22.91;97.95;94644.09;6300891;22;20661;-76
2022/07/31 10:07:25;;;;;;;21.73;15.48;;;;;;;23.13;97.32;94631.69;6298715;22;20176;-77
2022/07/31 10:09:54;;;;;;;20.13;16.35;;;;;;;23.53;93.91;94631.94;6300188;22;20200;-77
2022/07/31 10:12:24;;;;;;;20.35;16.00;;;;;;;23.73;91.71;94634.13;6301209;22;20211;-76
2022/07/31 10:14:55;;;;;;;18.35;15.70;;;;;;;23.88;90.13;94630.34;6300703;22;20676;-77
2022/07/31 10:17:27;;;;;;;18.13;16.00;;;;;;;23.85;90.53;94628.28;6300542;22;20161;-76
2022/07/31 10:19:58;;;;;;;19.15;15.95;;;;;;;23.96;90.21;94624.31;6300822;22;20510;-74
2022/07/31 10:22:27;;;;;;;18.98;16.15;;;;;;;23.90;89.42;94621.00;6143126;23;20243;-74
2022/07/31 10:24:55;;;;;;;15.88;13.57;;;;;;;24.14;88.46;94620.72;6300073;22;20183;-76
2022/07/31 10:27:22;;;;;;;17.02;14.23;;;;;;;24.43;84.61;94614.94;6301164;22;20175;-76
2022/07/31 10:29:49;;;;;;;17.70;13.98;;;;;;;24.74;84.86;94602.41;6300194;22;20207;-75
2022/07/31 10:32:18;;;;;;;14.98;13.40;;;;;;;25.02;82.44;94610.97;6300827;22;20172;-76
2022/07/31 10:34:45;;;;;;;14.75;12.15;;;;;;;25.02;nan;94608.31;6300118;22;20172;-76
2022/07/31 10:37:16;;;;;;;13.68;11.70;;;;;;;24.76;79.14;94610.88;6298748;22;20175;-75
2022/07/31 10:39:53;;;;;;;14.27;12.77;;;;;;;24.75;79.77;94609.31;6301376;22;20152;-76
2022/07/31 10:42:35;;;;;;;14.23;11.48;;;;;;;24.80;80.13;94598.53;6300258;22;20160;-76
2022/07/31 10:45:07;;;;;;;12.60;11.10;;;;;;;25.32;78.31;94600.25;6300672;22;20163;-77
2022/07/31 10:47:36;;;;;;;14.25;12.75;;;;;;;25.43;78.21;94611.34;6301393;22;20243;-76
2022/07/31 10:50:07;;;;;;;16.23;12.98;;;;;;;25.30;78.89;94599.78;6299884;22;20168;-75
2022/07/31 10:52:35;;;;;;;12.70;11.40;;;;;;;25.12;80.11;94592.06;6301048;22;20197;-74
2022/07/31 10:55:14;;;;;;;13.77;11.75;;;;;;;25.49;79.67;94591.50;6301399;22;20250;-76
2022/07/31 10:57:41;;;;;;;12.27;10.95;;;;;;;25.80;77.72;94586.81;6299957;22;20160;-75
2022/07/31 11:00:12;;;;;;;15.20;11.15;;;;;;;26.19;75.33;94587.72;6300882;22;20171;-75
2022/07/31 11:02:40;;;;;;;12.85;11.55;;;;;;;26.34;75.14;94585.34;6300498;22;20248;-75
2022/07/31 11:05:13;;;;;;;12.57;11.27;;;;;;;26.47;71.66;94587.00;6300288;22;20486;-75
2022/07/31 11:07:40;;;;;;;12.52;11.23;;;;;;;26.57;72.72;94583.22;6145624;23;20563;-74
2022/07/31 11:10:16;;;;;;;12.93;11.00;;;;;;;27.04;72.30;94576.72;6299914;22;20163;-78
2022/07/31 11:12:44;;;;;;;13.65;11.68;;;;;;;27.61;71.06;94589.59;6301236;22;20155;-76
2022/07/31 11:15:22;;;;;;;13.65;12.23;;;;;;;27.47;69.77;94586.41;6299724;22;20168;-76
2022/07/31 11:17:51;;;;;;;13.30;11.90;;;;;;;27.18;71.84;94581.06;6145519;23;20162;-76
2022/07/31 11:20:24;;;;;;;14.95;12.32;;;;;;;27.15;73.66;94581.72;6299154;22;20176;-78
2022/07/31 11:22:59;;;;;;;21.08;12.07;;;;;;;27.58;72.39;94579.56;6299264;22;20170;-77
2022/07/31 11:25:29;;;;;;;13.57;12.13;;;;;;;27.86;70.23;94588.59;6301172;22;20673;-76
2022/07/31 11:27:57;;;;;;;13.45;12.05;;;;;;;27.72;67.84;94574.72;6301238;22;20233;-76
2022/07/31 11:30:24;;;;;;;12.15;10.85;;;;;;;27.86;67.85;94577.91;6300553;22;20175;-76
2022/07/31 11:32:53;;;;;;;12.70;11.45;;;;;;;28.21;66.99;94583.72;6300391;22;20628;-74
2022/07/31 11:35:28;;;;;;;12.85;11.55;;;;;;;28.62;64.86;94572.09;6299498;22;20168;-75
2022/07/31 11:37:55;;;;;;;12.85;11.55;;;;;;;28.76;65.59;94569.91;6300568;22;20175;-75
2022/07/31 11:40:23;;;;;;;13.13;11.82;;;;;;;28.48;65.77;94558.28;6300552;22;20642;-76
2022/07/31 11:42:50;;;;;;;17.13;12.23;;;;;;;28.62;66.66;94543.47;6301137;22;20168;-76
2022/07/31 11:45:17;;;;;;;14.48;12.43;;;;;;;28.63;68.90;94549.56;6300157;22;20631;-75
2022/07/31 11:47:45;;;;;;;12.23;11.02;;;;;;;28.58;66.21;94555.94;6300560;22;20168;-76
2022/07/31 11:50:14;;;;;;;12.73;11.45;;;;;;;28.32;66.54;94554.66;6300708;22;20164;-75
2022/07/31 11:52:42;;;;;;;13.27;11.98;;;;;;;28.17;67.06;94545.38;6300715;22;20207;-75
2022/07/31 11:55:12;;;;;;;12.90;11.57;;;;;;;27.95;67.74;94565.25;6302828;22;20556;-73
2022/07/31 11:57:39;;;;;;;11.90;10.70;;;;;;;27.93;66.69;94559.44;6303238;22;20164;-74
2022/07/31 12:00:11;;;;;;;11.38;10.13;;;;;;;27.58;66.06;94558.19;6301477;22;20229;-74